createdAt,value
2018-06-22T00:02:24.372Z,1.90
2018-06-22T00:04:52.724Z,1.67
2018-06-22T00:07:20.816Z,2.53
2018-06-22T00:09:48.892Z,1.90
2018-06-22T00:12:16.985Z,2.10
2018-06-22T00:14:45.079Z,1.80
2018-06-22T00:17:13.162Z,2.53
2018-06-22T00:19:41.245Z,1.70
2018-06-22T00:22:09.373Z,2.50
2018-06-22T00:24:37.464Z,1.90
2018-06-22T00:27:05.589Z,1.77
2018-06-22T00:29:33.489Z,2.00
2018-06-22T00:32:01.588Z,2.07
2018-06-22T00:34:29.756Z,3.10
2018-06-22T00:36:57.868Z,2.10
2018-06-22T00:39:25.956Z,1.87
2018-06-22T00:41:54.054Z,1.90
2018-06-22T00:44:22.139Z,2.67
2018-06-22T00:46:50.239Z,2.30
2018-06-22T00:49:18.319Z,2.17
2018-06-22T00:51:46.407Z,2.43
2018-06-22T00:54:16.909Z,2.60
2018-06-22T00:56:45.195Z,2.43
2018-06-22T00:59:13.365Z,3.23
2018-06-22T01:01:41.546Z,2.27
2018-06-22T01:04:10.334Z,2.40
2018-06-22T01:06:38.460Z,2.13
2018-06-22T01:09:09.747Z,2.27
2018-06-22T01:11:37.851Z,2.23
2018-06-22T01:14:06.048Z,2.70
2018-06-22T01:16:34.402Z,2.63
2018-06-22T01:19:02.535Z,2.07
2018-06-22T01:21:30.645Z,2.10
2018-06-22T01:23:58.785Z,2.97
2018-06-22T01:26:26.875Z,2.60
2018-06-22T01:29:01.140Z,1.80
2018-06-22T01:31:29.224Z,3.07
2018-06-22T01:33:57.374Z,2.70
2018-06-22T01:36:25.469Z,2.13
2018-06-22T01:38:53.799Z,3.07
2018-06-22T01:41:21.925Z,2.20
2018-06-22T01:43:50.024Z,2.57
2018-06-22T01:46:18.105Z,2.33
2018-06-22T01:48:46.189Z,1.73
2018-06-22T01:51:14.277Z,2.87
2018-06-22T01:53:42.373Z,2.27
2018-06-22T01:56:10.453Z,2.10
2018-06-22T01:58:38.555Z,2.27
2018-06-22T02:01:06.699Z,2.10
2018-06-22T02:03:34.867Z,2.37
2018-06-22T02:06:02.961Z,2.27
2018-06-22T02:08:31.058Z,2.40
2018-06-22T02:10:59.176Z,1.80
2018-06-22T02:13:27.270Z,1.80
2018-06-22T02:15:55.444Z,1.63
2018-06-22T02:18:23.504Z,2.60
2018-06-22T02:20:51.606Z,2.60
2018-06-22T02:23:19.697Z,2.00
2018-06-22T02:25:47.853Z,2.07
2018-06-22T02:28:15.979Z,2.10
2018-06-22T02:30:44.075Z,1.70
2018-06-22T02:33:12.182Z,1.83
2018-06-22T02:35:40.267Z,2.27
2018-06-22T02:38:08.444Z,1.63
2018-06-22T02:40:36.536Z,1.70
2018-06-22T02:43:04.671Z,1.50
2018-06-22T02:45:32.781Z,1.70
2018-06-22T02:48:00.922Z,2.73
2018-06-22T02:50:29.026Z,1.80
2018-06-22T02:52:57.147Z,2.13
2018-06-22T02:55:25.252Z,2.47
2018-06-22T02:57:53.368Z,1.87
2018-06-22T03:00:21.523Z,2.33
2018-06-22T03:02:49.940Z,1.80
2018-06-22T03:05:18.025Z,2.30
2018-06-22T03:07:46.122Z,1.30
2018-06-22T03:10:14.254Z,2.00
2018-06-22T03:12:42.364Z,2.07
2018-06-22T03:15:10.504Z,2.10
2018-06-22T03:17:38.619Z,1.67
2018-06-22T03:20:06.738Z,1.47
2018-06-22T03:22:34.628Z,1.27
2018-06-22T03:25:02.719Z,1.70
2018-06-22T03:27:30.823Z,1.63
2018-06-22T03:29:58.927Z,2.03
2018-06-22T03:32:27.031Z,1.77
2018-06-22T03:34:55.127Z,1.47
2018-06-22T03:37:23.221Z,1.47
2018-06-22T03:39:51.311Z,1.47
2018-06-22T03:42:19.412Z,2.03
2018-06-22T03:44:47.521Z,1.57
2018-06-22T03:47:15.624Z,1.67
2018-06-22T03:49:43.726Z,1.87
2018-06-22T03:52:11.815Z,1.27
2018-06-22T03:54:39.923Z,1.70
2018-06-22T03:57:08.047Z,1.63
2018-06-22T03:59:36.138Z,2.33
2018-06-22T04:02:04.225Z,2.70
2018-06-22T04:04:32.307Z,1.50
2018-06-22T04:07:00.191Z,1.50
2018-06-22T04:09:28.280Z,2.23
2018-06-22T04:11:56.370Z,2.10
2018-06-22T04:14:24.463Z,1.80
2018-06-22T04:16:52.547Z,1.50
2018-06-22T04:19:20.632Z,2.00
2018-06-22T04:21:48.727Z,2.00
2018-06-22T04:24:17.946Z,2.63
2018-06-22T04:26:46.515Z,1.97
2018-06-22T04:29:16.227Z,3.17
2018-06-22T04:31:44.496Z,1.80
2018-06-22T04:34:12.600Z,2.23
2018-06-22T04:36:40.663Z,1.87
2018-06-22T04:39:10.472Z,2.20
2018-06-22T04:41:38.940Z,2.00
2018-06-22T04:44:07.027Z,2.87
2018-06-22T04:46:35.099Z,1.97
2018-06-22T04:49:03.180Z,1.90
2018-06-22T04:51:31.744Z,2.30
2018-06-22T04:54:00.334Z,2.70
2018-06-22T04:56:28.604Z,2.07
2018-06-22T04:58:56.683Z,2.00
2018-06-22T05:01:24.827Z,2.20
2018-06-22T05:03:52.920Z,2.20
2018-06-22T05:06:21.056Z,1.87
2018-06-22T05:08:49.128Z,2.37
2018-06-22T05:11:17.223Z,1.80
2018-06-22T05:13:45.299Z,1.90
2018-06-22T05:16:13.382Z,2.27
2018-06-22T05:18:41.531Z,2.00
2018-06-22T05:21:09.655Z,2.43
2018-06-22T05:23:37.747Z,1.93
2018-06-22T05:26:05.951Z,2.83
2018-06-22T05:28:34.089Z,2.07
2018-06-22T05:31:02.208Z,2.67
2018-06-22T05:33:30.309Z,1.90
2018-06-22T05:35:58.416Z,2.43
2018-06-22T05:38:26.509Z,2.63
2018-06-22T05:40:54.604Z,2.83
2018-06-22T05:43:22.692Z,2.13
2018-06-22T05:45:50.819Z,1.93
2018-06-22T05:48:18.907Z,2.43
2018-06-22T05:50:47.084Z,3.47
2018-06-22T05:53:15.111Z,2.70
2018-06-22T05:55:43.211Z,2.67
2018-06-22T05:58:11.296Z,3.03
2018-06-22T06:00:39.404Z,2.50
2018-06-22T06:03:07.545Z,3.00
2018-06-22T06:05:35.686Z,1.80
2018-06-22T06:08:03.779Z,1.87
2018-06-22T06:10:31.879Z,2.17
2018-06-22T06:12:59.964Z,2.37
2018-06-22T06:15:28.082Z,2.53
2018-06-22T06:17:56.184Z,2.13
2018-06-22T06:20:24.302Z,1.97
2018-06-22T06:22:52.448Z,1.60
2018-06-22T06:25:20.555Z,2.03
2018-06-22T06:27:48.639Z,1.80
2018-06-22T06:30:16.751Z,1.60
2018-06-22T06:32:44.836Z,1.63
2018-06-22T06:35:12.940Z,1.00
2018-06-22T06:37:41.049Z,1.53
2018-06-22T06:40:09.229Z,1.13
2018-06-22T06:42:37.319Z,1.10
2018-06-22T06:45:05.493Z,1.20
2018-06-22T06:47:33.594Z,0.90
2018-06-22T06:50:01.702Z,1.10
2018-06-22T06:52:29.839Z,1.07
2018-06-22T06:54:57.935Z,1.10
2018-06-22T06:57:26.036Z,1.30
2018-06-22T06:59:54.120Z,0.90
2018-06-22T07:02:22.259Z,1.47
2018-06-22T07:04:50.379Z,1.23
2018-06-22T07:07:18.480Z,1.07
2018-06-22T07:09:46.559Z,1.83
2018-06-22T07:12:14.652Z,1.30
2018-06-22T07:14:42.735Z,0.90
2018-06-22T07:17:10.834Z,0.60
2018-06-22T07:19:38.926Z,0.83
2018-06-22T07:22:07.047Z,0.83
2018-06-22T07:24:35.133Z,0.80
2018-06-22T07:27:03.396Z,0.93
2018-06-22T07:29:31.675Z,0.93
2018-06-22T07:31:59.779Z,0.60
2018-06-22T07:34:27.944Z,0.70
2018-06-22T07:36:56.051Z,0.67
2018-06-22T07:39:24.200Z,1.23
2018-06-22T07:41:52.305Z,1.80
2018-06-22T07:44:20.403Z,1.00
2018-06-22T07:46:48.515Z,1.10
2018-06-22T07:49:16.601Z,0.60
2018-06-22T07:51:44.697Z,0.80
2018-06-22T07:54:12.789Z,1.40
2018-06-22T07:56:40.882Z,1.03
2018-06-22T07:59:09.084Z,1.07
2018-06-22T08:01:37.296Z,0.97
2018-06-22T08:04:05.392Z,0.70
2018-06-22T08:06:33.581Z,0.90
2018-06-22T08:09:01.664Z,0.70
2018-06-22T08:11:29.756Z,0.83
2018-06-22T08:13:57.841Z,0.97
2018-06-22T08:16:25.943Z,0.60
2018-06-22T08:18:54.032Z,0.70
2018-06-22T08:21:22.148Z,0.80
2018-06-22T08:23:50.273Z,0.90
2018-06-22T08:26:18.335Z,0.70
2018-06-22T08:28:46.424Z,1.20
2018-06-22T08:31:14.724Z,0.90
2018-06-22T08:33:42.823Z,0.90
2018-06-22T08:36:10.917Z,0.80
2018-06-22T08:38:38.996Z,0.70
2018-06-22T08:41:07.075Z,1.43
2018-06-22T08:43:35.151Z,1.43
2018-06-22T08:46:03.311Z,1.17
2018-06-22T08:48:31.403Z,1.33
2018-06-22T08:50:59.503Z,0.90
2018-06-22T08:53:27.595Z,0.90
2018-06-22T08:55:55.656Z,1.17
2018-06-22T08:58:23.752Z,0.50
2018-06-22T09:00:51.841Z,0.70
2018-06-22T09:03:19.931Z,0.63
2018-06-22T09:05:48.007Z,0.80
2018-06-22T09:08:16.242Z,1.03
2018-06-22T09:10:44.282Z,1.10
2018-06-22T09:13:12.387Z,1.80
2018-06-22T09:15:40.473Z,0.60
2018-06-22T09:18:08.610Z,0.80
2018-06-22T09:20:36.713Z,0.60
2018-06-22T09:23:04.795Z,0.90
2018-06-22T09:25:32.907Z,1.00
2018-06-22T09:28:01.035Z,0.97
2018-06-22T09:30:29.117Z,1.50
2018-06-22T09:32:57.426Z,1.90
2018-06-22T09:35:25.519Z,0.97
2018-06-22T09:37:53.595Z,1.57
2018-06-22T09:40:21.681Z,1.00
2018-06-22T09:42:49.817Z,1.13
2018-06-22T09:45:17.863Z,1.10
2018-06-22T09:47:45.947Z,0.93
2018-06-22T09:50:14.037Z,1.60
2018-06-22T09:52:42.114Z,0.90
2018-06-22T09:55:10.220Z,0.93
2018-06-22T09:57:38.309Z,1.07
2018-06-22T10:00:06.190Z,1.30
2018-06-22T10:02:34.283Z,1.07
2018-06-22T10:05:02.371Z,1.50
2018-06-22T10:07:30.465Z,0.73
2018-06-22T10:09:58.540Z,1.43
2018-06-22T10:12:26.622Z,1.20
2018-06-22T10:14:54.501Z,1.10
2018-06-22T10:17:22.580Z,1.57
2018-06-22T10:19:50.820Z,1.30
2018-06-22T10:22:18.932Z,1.20
2018-06-22T10:24:47.061Z,1.07
2018-06-22T10:27:15.189Z,1.30
2018-06-22T10:29:43.268Z,0.93
2018-06-22T10:32:11.363Z,0.93
2018-06-22T10:34:39.474Z,1.00
2018-06-22T10:37:07.567Z,1.07
2018-06-22T10:39:35.679Z,1.40
2018-06-22T10:42:03.810Z,1.17
2018-06-22T10:44:32.013Z,1.40
2018-06-22T10:47:00.715Z,1.90
2018-06-22T10:49:28.869Z,1.33
2018-06-22T10:51:57.053Z,2.73
2018-06-22T10:54:25.363Z,1.77
2018-06-22T10:56:53.487Z,2.40
2018-06-22T10:59:21.596Z,2.40
2018-06-22T11:01:49.712Z,2.33
2018-06-22T11:04:17.824Z,1.70
2018-06-22T11:06:45.982Z,1.83
2018-06-22T11:09:14.097Z,1.57
2018-06-22T11:11:42.229Z,1.83
2018-06-22T11:14:10.340Z,1.80
2018-06-22T11:16:38.445Z,1.30
2018-06-22T11:19:06.560Z,1.10
2018-06-22T11:21:34.656Z,1.20
2018-06-22T11:24:02.845Z,1.40
2018-06-22T11:26:31.066Z,1.47
2018-06-22T11:28:59.191Z,1.77
2018-06-22T11:31:27.310Z,1.20
2018-06-22T11:33:55.596Z,0.93
2018-06-22T11:36:23.794Z,1.50
2018-06-22T11:38:51.898Z,1.20
2018-06-22T11:41:20.040Z,1.47
2018-06-22T11:43:48.120Z,1.00
2018-06-22T11:46:16.223Z,0.93
2018-06-22T11:48:44.401Z,1.47
2018-06-22T11:51:12.582Z,1.00
2018-06-22T11:53:40.721Z,1.10
2018-06-22T11:56:08.868Z,1.13
2018-06-22T11:58:36.987Z,1.40
2018-06-22T12:01:05.096Z,1.00
2018-06-22T12:03:33.215Z,1.37
2018-06-22T12:06:01.320Z,1.37
2018-06-22T12:08:29.432Z,1.30
2018-06-22T12:10:57.543Z,2.10
2018-06-22T12:13:25.648Z,1.60
2018-06-22T12:15:53.776Z,1.70
2018-06-22T12:18:21.885Z,1.90
2018-06-22T12:20:50.016Z,3.20
2018-06-22T12:23:18.124Z,1.90
2018-06-22T12:25:46.251Z,2.70
2018-06-22T12:28:14.388Z,2.70
2018-06-22T12:30:42.559Z,2.90
2018-06-22T12:33:10.732Z,2.63
2018-06-22T12:35:38.793Z,2.57
2018-06-22T12:38:06.965Z,2.53
2018-06-22T12:40:35.102Z,2.60
2018-06-22T12:43:03.199Z,2.00
2018-06-22T12:45:31.305Z,2.03
2018-06-22T12:47:59.413Z,1.50
2018-06-22T12:50:27.577Z,1.73
2018-06-22T12:52:55.776Z,1.80
2018-06-22T12:55:24.288Z,2.17
2018-06-22T12:57:52.392Z,1.80
2018-06-22T13:00:20.535Z,1.50
2018-06-22T13:02:48.667Z,1.70
2018-06-22T13:05:16.840Z,1.50
2018-06-22T13:07:44.940Z,1.57
2018-06-22T13:10:13.039Z,1.73
2018-06-22T13:12:41.157Z,1.60
2018-06-22T13:15:09.047Z,1.90
2018-06-22T13:17:37.134Z,1.77
2018-06-22T13:20:05.242Z,1.23
2018-06-22T13:22:33.989Z,1.20
2018-06-22T13:25:02.101Z,1.50
2018-06-22T13:27:30.223Z,1.40
2018-06-22T13:29:58.328Z,1.60
2018-06-22T13:32:26.564Z,1.50
2018-06-22T13:34:54.671Z,1.13
2018-06-22T13:37:22.767Z,1.47
2018-06-22T13:39:50.851Z,1.70
2018-06-22T13:42:18.958Z,1.57
2018-06-22T13:44:46.842Z,1.53
2018-06-22T13:47:14.936Z,1.30
2018-06-22T13:49:43.015Z,1.37
2018-06-22T13:52:11.127Z,2.20
2018-06-22T13:54:39.259Z,1.67
2018-06-22T13:57:07.500Z,1.50
2018-06-22T13:59:35.516Z,1.30
2018-06-22T14:02:03.645Z,3.20
2018-06-22T14:04:37.189Z,1.70
2018-06-22T14:07:07.046Z,1.50
2018-06-22T14:09:35.357Z,1.80
2018-06-22T14:12:03.512Z,1.83
2018-06-22T14:14:31.588Z,1.93
2018-06-22T14:17:00.422Z,1.80
2018-06-22T14:19:28.509Z,1.90
2018-06-22T14:21:56.656Z,1.50
2018-06-22T14:24:24.748Z,2.10
2018-06-22T14:26:53.031Z,1.93
2018-06-22T14:29:21.094Z,2.00
2018-06-22T14:31:49.180Z,1.77
2018-06-22T14:34:17.284Z,1.40
2018-06-22T14:36:45.470Z,1.70
2018-06-22T14:39:13.475Z,1.60
2018-06-22T14:41:41.560Z,1.63
2018-06-22T14:44:10.704Z,1.60
2018-06-22T14:46:44.446Z,1.70
2018-06-22T14:49:12.625Z,2.13
2018-06-22T14:51:40.895Z,2.00
2018-06-22T14:54:14.584Z,1.87
2018-06-22T14:56:48.322Z,1.60
2018-06-22T14:59:21.793Z,2.07
2018-06-22T15:01:55.404Z,2.20
2018-06-22T15:04:29.028Z,2.33
2018-06-22T15:07:02.661Z,2.17
2018-06-22T15:09:30.712Z,2.20
2018-06-22T15:11:58.797Z,2.20
2018-06-22T15:14:26.904Z,1.80
2018-06-22T15:16:55.033Z,3.37
2018-06-22T15:19:23.124Z,2.40
2018-06-22T15:21:51.270Z,2.20
2018-06-22T15:24:31.553Z,2.60
2018-06-22T15:26:59.656Z,2.00
2018-06-22T15:29:27.535Z,1.90
2018-06-22T15:31:55.671Z,2.07
2018-06-22T15:34:29.188Z,1.50
2018-06-22T15:37:02.555Z,1.93
2018-06-22T15:39:36.256Z,2.23
2018-06-22T15:42:09.873Z,2.00
2018-06-22T15:44:43.550Z,2.23
2018-06-22T15:47:17.215Z,1.90
2018-06-22T15:49:56.639Z,2.10
2018-06-22T15:52:30.115Z,2.43
2018-06-22T15:55:03.789Z,2.33
2018-06-22T15:57:31.943Z,2.13
2018-06-22T16:00:00.112Z,2.00
2018-06-22T16:02:33.740Z,2.20
2018-06-22T16:05:01.828Z,2.13
2018-06-22T16:07:30.234Z,2.20
2018-06-22T16:10:01.380Z,2.00
2018-06-22T16:12:35.305Z,1.93
2018-06-22T16:15:08.962Z,1.80
2018-06-22T16:17:42.559Z,2.07
2018-06-22T16:21:16.124Z,1.90
2018-06-22T16:23:49.874Z,2.23
2018-06-22T16:26:23.385Z,2.07
2018-06-22T16:28:51.497Z,1.90
2018-06-22T16:31:19.595Z,2.70
2018-06-22T16:33:54.512Z,2.30
2018-06-22T16:36:22.640Z,2.70
2018-06-22T16:38:50.740Z,2.70
2018-06-22T16:41:18.865Z,2.50
2018-06-22T16:43:46.976Z,2.97
2018-06-22T16:46:15.097Z,2.37
2018-06-22T16:48:43.179Z,2.80
2018-06-22T16:51:11.272Z,1.50
2018-06-22T16:53:39.366Z,2.17
2018-06-22T16:56:07.509Z,2.93
2018-06-22T16:58:37.506Z,1.87
2018-06-22T17:01:06.370Z,2.00
2018-06-22T17:03:34.751Z,2.30
2018-06-22T17:06:02.933Z,2.90
2018-06-22T17:08:36.259Z,2.03
2018-06-22T17:11:09.745Z,1.90
2018-06-22T17:13:43.359Z,1.50
2018-06-22T17:16:16.833Z,2.23
2018-06-22T17:18:50.276Z,2.20
2018-06-22T17:21:18.420Z,1.83
2018-06-22T17:23:46.504Z,2.20
2018-06-22T17:26:14.671Z,1.73
2018-06-22T17:28:42.779Z,2.53
2018-06-22T17:31:10.906Z,2.13
2018-06-22T17:33:39.567Z,2.33
2018-06-22T17:36:08.063Z,1.90
2018-06-22T17:38:36.152Z,2.63
2018-06-22T17:41:04.280Z,1.70
2018-06-22T17:43:32.366Z,2.43
2018-06-22T17:46:00.507Z,1.83
2018-06-22T17:48:28.569Z,2.77
2018-06-22T17:50:56.752Z,2.33
2018-06-22T17:53:24.835Z,2.00
2018-06-22T17:55:52.932Z,2.27
2018-06-22T17:58:21.012Z,2.73
2018-06-22T18:00:54.478Z,2.03
2018-06-22T18:03:28.140Z,2.40
2018-06-22T18:06:01.826Z,2.73
2018-06-22T18:08:35.189Z,2.30
2018-06-22T18:11:08.788Z,1.90
2018-06-22T18:13:36.876Z,2.50
2018-06-22T18:16:05.575Z,2.40
2018-06-22T18:18:34.862Z,2.23
2018-06-22T18:21:03.775Z,3.73
2018-06-22T18:23:31.868Z,2.53
2018-06-22T18:26:00.021Z,3.10
2018-06-22T18:28:28.109Z,2.30
2018-06-22T18:30:56.183Z,2.60
2018-06-22T18:33:24.324Z,3.10
2018-06-22T18:35:52.392Z,3.00
2018-06-22T18:38:20.562Z,2.70
2018-06-22T18:40:48.819Z,2.33
2018-06-22T18:43:22.216Z,2.50
2018-06-22T18:45:50.288Z,2.13
2018-06-22T18:48:18.383Z,2.60
2018-06-22T18:50:46.480Z,2.53
2018-06-22T18:53:19.976Z,2.40
2018-06-22T18:55:53.583Z,3.17
2018-06-22T18:58:27.161Z,3.70
2018-06-22T19:01:00.551Z,2.17
2018-06-22T19:03:33.971Z,2.30
2018-06-22T19:06:02.089Z,2.90
2018-06-22T19:08:30.183Z,2.73
2018-06-22T19:10:58.284Z,3.20
2018-06-22T19:13:26.374Z,3.00
2018-06-22T19:15:54.459Z,3.10
2018-06-22T19:18:22.560Z,3.10
2018-06-22T19:20:50.688Z,2.67
2018-06-22T19:23:18.791Z,3.70
2018-06-22T19:25:46.954Z,3.07
2018-06-22T19:28:15.238Z,3.10
2018-06-22T19:30:43.327Z,2.97
2018-06-22T19:33:11.437Z,2.50
2018-06-22T19:35:39.532Z,2.60
2018-06-22T19:38:07.648Z,2.57
2018-06-22T19:40:41.464Z,3.27
2018-06-22T19:43:15.110Z,2.87
2018-06-22T19:45:48.776Z,2.80
2018-06-22T19:48:23.463Z,2.30
2018-06-22T19:50:56.985Z,2.80
2018-06-22T19:53:30.552Z,2.40
2018-06-22T19:55:58.681Z,2.47
2018-06-22T19:58:26.815Z,2.50
2018-06-22T20:00:54.931Z,3.23
2018-06-22T20:03:23.030Z,2.20
2018-06-22T20:05:51.172Z,2.80
2018-06-22T20:08:19.266Z,2.47
2018-06-22T20:10:47.448Z,2.97
2018-06-22T20:13:15.647Z,2.40
2018-06-22T20:15:43.734Z,1.87
2018-06-22T20:18:11.845Z,3.07
2018-06-22T20:20:39.955Z,2.40
2018-06-22T20:23:08.046Z,2.33
2018-06-22T20:25:41.686Z,2.23
2018-06-22T20:28:09.797Z,2.43
2018-06-22T20:30:37.899Z,1.83
2018-06-22T20:33:05.992Z,1.93
2018-06-22T20:35:39.724Z,3.60
2018-06-22T20:38:13.448Z,2.13
2018-06-22T20:40:47.136Z,1.90
2018-06-22T20:43:20.734Z,2.20
2018-06-22T20:45:53.364Z,2.87
2018-06-22T20:48:26.859Z,2.07
2018-06-22T20:50:54.978Z,2.97
2018-06-22T20:53:23.077Z,2.70
2018-06-22T20:55:51.198Z,1.90
2018-06-22T20:58:19.458Z,2.40
2018-06-22T21:00:47.561Z,2.20
2018-06-22T21:03:15.818Z,2.73
2018-06-22T21:05:43.927Z,2.40
2018-06-22T21:08:12.007Z,1.80
2018-06-22T21:10:40.091Z,2.60
2018-06-22T21:13:08.476Z,3.50
2018-06-22T21:15:36.408Z,2.73
2018-06-22T21:18:04.491Z,2.40
2018-06-22T21:20:32.646Z,2.77
2018-06-22T21:23:00.756Z,2.67
2018-06-22T21:25:28.962Z,2.77
2018-06-22T21:28:02.497Z,3.47
2018-06-22T21:30:35.981Z,3.03
2018-06-22T21:33:09.684Z,2.20
2018-06-22T21:35:43.386Z,3.00
2018-06-22T21:38:17.016Z,2.53
2018-06-22T21:40:45.116Z,2.40
2018-06-22T21:43:13.213Z,2.67
2018-06-22T21:45:41.308Z,2.23
2018-06-22T21:48:09.388Z,2.73
2018-06-22T21:50:37.499Z,2.20
2018-06-22T21:53:05.596Z,2.97
2018-06-22T21:55:33.717Z,2.90
2018-06-22T21:58:01.643Z,3.33
2018-06-22T22:00:32.784Z,3.37
2018-06-22T22:03:01.613Z,3.70
2018-06-22T22:05:30.295Z,2.90
2018-06-22T22:07:58.531Z,3.00
2018-06-22T22:10:32.085Z,2.67
2018-06-22T22:13:00.188Z,2.60
2018-06-22T22:15:28.731Z,2.40
2018-06-22T22:17:56.832Z,3.40
2018-06-22T22:20:24.921Z,3.10
2018-06-22T22:22:53.039Z,2.70
2018-06-22T22:25:21.135Z,2.80
2018-06-22T22:27:49.236Z,2.20
2018-06-22T22:30:17.384Z,2.83
2018-06-22T22:32:45.491Z,2.60
2018-06-22T22:35:13.588Z,2.50
2018-06-22T22:37:41.702Z,3.20
2018-06-22T22:40:10.070Z,2.53
2018-06-22T22:42:38.171Z,2.67
2018-06-22T22:45:06.348Z,3.20
2018-06-22T22:47:34.449Z,2.50
2018-06-22T22:50:02.552Z,2.40
2018-06-22T22:52:30.669Z,2.50
2018-06-22T22:54:58.784Z,3.20
2018-06-22T22:57:26.898Z,2.40
2018-06-22T22:59:55.037Z,2.73
2018-06-22T23:02:23.146Z,2.87
2018-06-22T23:07:44.636Z,2.50
2018-06-22T23:10:12.751Z,3.10
2018-06-22T23:12:40.856Z,2.37
2018-06-22T23:15:08.984Z,2.40
2018-06-22T23:17:37.099Z,2.60
2018-06-22T23:20:05.345Z,2.97
2018-06-22T23:22:45.418Z,2.87
2018-06-22T23:25:13.524Z,2.77
2018-06-22T23:27:41.631Z,2.63
2018-06-22T23:30:09.745Z,2.07
2018-06-22T23:32:37.887Z,3.10
2018-06-22T23:35:06.068Z,3.10
2018-06-22T23:37:34.204Z,2.70
2018-06-22T23:40:02.369Z,2.93
2018-06-22T23:42:30.485Z,2.60
2018-06-22T23:44:58.580Z,2.93
2018-06-22T23:47:26.669Z,3.00
2018-06-22T23:49:54.765Z,2.47
2018-06-22T23:52:22.850Z,3.33
2018-06-22T23:54:50.942Z,2.50
2018-06-22T23:57:19.160Z,2.97
2018-06-22T23:59:47.284Z,2.40
